Time;durP1;ratioP1;P1;durP2;ratioP2;P2;SDS_P1;SDS_P2;PMS_P1;PMS_P2;Temp;Humidity;BMP_temperature;BMP_pressure;BME280_temperature;BME280_humidity;BME280_pressure;Samples;Min_cycle;Max_cycle;Signal;HPM_P1;HPM_P2
2022/01/19 00:00:08;;;;;;;;;21.25;18.25;;;;;;;;5015715;28;45690;-94
2022/01/19 00:02:34;;;;;;;;;21.25;18.25;;;;;;;;4988486;28;45223;-94
2022/01/19 00:04:59;;;;;;;;;18.00;16.33;;;;;;;;5007102;28;45317;-95
2022/01/19 00:07:24;;;;;;;;;19.75;17.25;;;;;;;;5014543;28;44944;-95
2022/01/19 00:09:49;;;;;;;;;20.75;17.50;;;;;;;;5003549;28;47124;-95
2022/01/19 00:12:15;;;;;;;;;21.75;14.50;;;;;;;;4998008;28;45580;-95
2022/01/19 00:14:40;;;;;;;;;23.00;19.75;;;;;;;;5019588;28;45652;-95
2022/01/19 00:17:05;;;;;;;;;19.50;19.00;;;;;;;;4998418;28;45459;-95
2022/01/19 00:19:30;;;;;;;;;25.25;21.25;;;;;;;;4999608;28;46949;-95
2022/01/19 00:21:55;;;;;;;;;14.00;14.00;;;;;;;;5000657;28;45477;-94
2022/01/19 00:24:21;;;;;;;;;19.00;17.25;;;;;;;;4998663;28;45447;-95
2022/01/19 00:26:47;;;;;;;;;17.00;17.00;;;;;;;;5006051;28;45320;-94
2022/01/19 00:29:12;;;;;;;;;17.75;16.75;;;;;;;;5030050;28;46233;-95
2022/01/19 00:31:37;;;;;;;;;20.33;16.33;;;;;;;;5000694;28;45394;-94
2022/01/19 00:34:03;;;;;;;;;21.25;19.25;;;;;;;;4994446;28;45528;-95
2022/01/19 00:36:29;;;;;;;;;24.75;18.75;;;;;;;;5022108;28;45281;-94
2022/01/19 00:38:55;;;;;;;;;21.25;17.00;;;;;;;;5013848;28;48293;-95
2022/01/19 00:41:20;;;;;;;;;18.00;17.67;;;;;;;;4996364;28;45460;-94
2022/01/19 00:43:45;;;;;;;;;20.25;18.25;;;;;;;;4982090;28;45787;-95
2022/01/19 00:46:10;;;;;;;;;15.75;15.75;;;;;;;;5003579;28;45253;-94
2022/01/19 00:48:36;;;;;;;;;17.00;16.75;;;;;;;;5016251;28;47009;-95
2022/01/19 00:51:02;;;;;;;;;20.75;19.25;;;;;;;;5022253;28;45542;-94
2022/01/19 00:53:27;;;;;;;;;20.67;20.00;;;;;;;;5006148;28;45254;-94
2022/01/19 00:55:52;;;;;;;;;20.00;16.67;;;;;;;;5021865;28;45134;-94
2022/01/19 00:58:18;;;;;;;;;16.67;15.67;;;;;;;;5033763;28;46936;-94
2022/01/19 01:00:43;;;;;;;;;20.33;17.33;;;;;;;;5025939;28;45785;-94
2022/01/19 01:03:09;;;;;;;;;16.33;13.33;;;;;;;;5032017;28;45299;-94
2022/01/19 01:05:35;;;;;;;;;20.50;17.75;;;;;;;;5032927;28;45420;-94
2022/01/19 01:08:01;;;;;;;;;22.00;16.33;;;;;;;;5013643;28;47852;-94
2022/01/19 01:10:26;;;;;;;;;20.75;18.25;;;;;;;;5011692;28;45338;-95
2022/01/19 01:12:54;;;;;;;;;19.00;17.50;;;;;;;;5015457;28;45582;-94
2022/01/19 01:15:37;;;;;;;;;20.50;16.75;;;;;;;;5015689;28;45423;-94
2022/01/19 01:20:33;;;;;;;;;21.50;19.25;;;;;;;;5016325;28;45342;-95
2022/01/19 01:22:58;;;;;;;;;20.25;17.00;;;;;;;;4999478;28;45459;-94
2022/01/19 01:25:24;;;;;;;;;26.50;22.25;;;;;;;;5018277;28;45602;-94
2022/01/19 01:27:49;;;;;;;;;16.67;16.33;;;;;;;;5017217;28;46982;-95
2022/01/19 01:30:15;;;;;;;;;26.67;20.00;;;;;;;;5013691;28;45411;-95
2022/01/19 01:32:40;;;;;;;;;24.00;21.25;;;;;;;;4998036;28;45511;-94
2022/01/19 01:35:06;;;;;;;;;23.00;21.75;;;;;;;;5031417;28;44991;-94
2022/01/19 01:37:31;;;;;;;;;21.00;16.00;;;;;;;;5033645;28;46853;-94
2022/01/19 01:39:56;;;;;;;;;28.00;21.25;;;;;;;;5035276;28;45690;-94
2022/01/19 01:42:23;;;;;;;;;23.67;15.67;;;;;;;;5025537;28;45383;-94
2022/01/19 01:44:51;;;;;;;;;20.75;15.75;;;;;;;;5025934;28;45539;-94
2022/01/19 01:47:18;;;;;;;;;19.33;18.00;;;;;;;;5022045;28;48233;-93
2022/01/19 01:54:53;;;;;;;;;26.25;18.75;;;;;;;;5047930;28;44787;-94
2022/01/19 01:57:19;;;;;;;;;20.50;18.50;;;;;;;;5058051;28;47137;-94
2022/01/19 01:59:45;;;;;;;;;19.67;18.00;;;;;;;;5038789;28;45254;-94
2022/01/19 02:02:10;;;;;;;;;23.50;19.75;;;;;;;;5038320;28;45321;-94
2022/01/19 02:04:40;;;;;;;;;21.00;15.67;;;;;;;;5021549;28;45507;-94
2022/01/19 02:09:35;;;;;;;;;20.67;20.33;;;;;;;;5005252;28;45406;-94
2022/01/19 02:23:04;;;;;;;;;17.50;16.25;;;;;;;;5017209;28;45406;-94
2022/01/19 02:25:36;;;;;;;;;22.50;20.75;;;;;;;;5028784;28;45285;-94
2022/01/19 02:41:33;;;;;;;;;22.00;19.50;;;;;;;;4997602;28;45526;-94
2022/01/19 02:43:58;;;;;;;;;24.75;20.25;;;;;;;;5030613;28;45355;-94
2022/01/19 02:46:40;;;;;;;;;28.25;23.00;;;;;;;;5020506;28;45325;-94
2022/01/19 02:49:19;;;;;;;;;19.75;18.00;;;;;;;;5023562;28;47221;-94
2022/01/19 02:51:46;;;;;;;;;23.50;18.50;;;;;;;;5031825;28;45274;-95
2022/01/19 02:54:15;;;;;;;;;23.25;20.50;;;;;;;;5027139;28;45567;-94
2022/01/19 02:56:43;;;;;;;;;27.50;21.25;;;;;;;;4997884;28;45264;-95
2022/01/19 03:10:05;;;;;;;;;25.50;18.75;;;;;;;;5008849;28;45384;-94
2022/01/19 03:12:31;;;;;;;;;25.50;19.00;;;;;;;;5003296;28;45454;-94
2022/01/19 03:14:56;;;;;;;;;26.50;19.00;;;;;;;;5018311;28;45315;-95
2022/01/19 03:17:22;;;;;;;;;23.50;19.00;;;;;;;;4987407;28;45444;-94
2022/01/19 03:19:47;;;;;;;;;20.50;19.25;;;;;;;;5017875;28;46956;-95
2022/01/19 03:22:12;;;;;;;;;25.50;20.00;;;;;;;;5021333;28;45345;-94
2022/01/19 03:24:39;;;;;;;;;14.75;14.75;;;;;;;;5019222;28;45597;-95
2022/01/19 03:27:05;;;;;;;;;21.25;20.25;;;;;;;;4980292;28;45397;-94
2022/01/19 03:29:31;;;;;;;;;24.75;19.50;;;;;;;;5009506;28;48766;-95
2022/01/19 03:31:56;;;;;;;;;24.75;21.50;;;;;;;;5009533;28;45628;-95
2022/01/19 03:34:22;;;;;;;;;26.00;20.00;;;;;;;;5003588;28;45515;-94
2022/01/19 03:36:47;;;;;;;;;21.00;18.00;;;;;;;;4998412;28;45319;-94
2022/01/19 03:39:12;;;;;;;;;7.50;3.00;;;;;;;;4995254;28;47089;-94
2022/01/19 03:41:37;;;;;;;;;24.00;22.50;;;;;;;;5001953;28;45483;-94
2022/01/19 03:44:02;;;;;;;;;21.00;19.75;;;;;;;;4997474;28;45548;-94
2022/01/19 03:46:33;;;;;;;;;25.50;22.25;;;;;;;;5003793;28;45353;-94
2022/01/19 03:49:10;;;;;;;;;22.50;22.00;;;;;;;;5006800;28;48053;-94
2022/01/19 03:51:36;;;;;;;;;21.50;16.50;;;;;;;;5000147;28;45396;-94
2022/01/19 03:54:03;;;;;;;;;22.50;21.75;;;;;;;;5012186;28;45494;-94
2022/01/19 03:56:28;;;;;;;;;24.00;21.50;;;;;;;;4985653;28;45504;-95
2022/01/19 03:58:53;;;;;;;;;19.75;16.00;;;;;;;;5015913;28;48419;-94
2022/01/19 04:01:18;;;;;;;;;23.50;20.25;;;;;;;;5030769;28;45460;-95
2022/01/19 04:06:23;;;;;;;;;20.25;19.75;;;;;;;;5024159;28;45233;-94
2022/01/19 04:08:48;;;;;;;;;20.25;19.50;;;;;;;;5040347;28;48461;-94
2022/01/19 04:11:17;;;;;;;;;22.25;18.25;;;;;;;;5035814;28;45527;-95
2022/01/19 04:16:23;;;;;;;;;21.50;19.00;;;;;;;;5019223;28;45411;-95
2022/01/19 04:18:51;;;;;;;;;17.25;16.00;;;;;;;;5021467;28;48218;-94
2022/01/19 04:21:16;;;;;;;;;21.25;19.00;;;;;;;;5001290;28;45409;-95
2022/01/19 04:23:42;;;;;;;;;22.75;21.50;;;;;;;;5014300;28;45298;-94
2022/01/19 04:26:07;;;;;;;;;21.75;19.75;;;;;;;;5014275;28;45296;-94
2022/01/19 04:28:33;;;;;;;;;22.50;19.00;;;;;;;;5026494;28;47277;-94
2022/01/19 04:30:58;;;;;;;;;20.25;20.25;;;;;;;;5022290;28;46039;-95
2022/01/19 04:33:26;;;;;;;;;24.00;20.75;;;;;;;;5014068;28;45520;-94
2022/01/19 04:35:54;;;;;;;;;24.25;20.25;;;;;;;;5014439;28;45600;-94
2022/01/19 05:08:23;;;;;;;;;32.75;23.25;;;;;;;;4919129;28;45293;-95
2022/01/19 05:13:32;;;;;;;;;26.50;21.00;;;;;;;;4942460;28;45510;-94
2022/01/19 05:15:57;;;;;;;;;23.00;23.00;;;;;;;;4957495;28;45670;-94
2022/01/19 05:18:22;;;;;;;;;25.25;20.50;;;;;;;;4952257;28;45304;-95
2022/01/19 05:20:48;;;;;;;;;23.50;21.75;;;;;;;;4939614;28;45546;-93
2022/01/19 05:23:14;;;;;;;;;25.00;24.50;;;;;;;;4957432;28;45365;-94
2022/01/19 05:25:40;;;;;;;;;30.50;25.25;;;;;;;;4940826;28;45489;-94
2022/01/19 05:28:05;;;;;;;;;22.25;21.00;;;;;;;;4937384;28;45387;-94
2022/01/19 05:30:31;;;;;;;;;29.00;27.25;;;;;;;;4974037;28;47186;-95
2022/01/19 05:32:56;;;;;;;;;30.25;26.00;;;;;;;;5000519;28;45362;-94
2022/01/19 05:35:21;;;;;;;;;35.00;29.75;;;;;;;;5031388;28;44816;-94
2022/01/19 05:37:46;;;;;;;;;34.50;28.50;;;;;;;;5028658;28;44742;-94
2022/01/19 05:40:15;;;;;;;;;31.50;28.25;;;;;;;;5042071;28;46969;-95
2022/01/19 05:42:41;;;;;;;;;21.50;21.00;;;;;;;;5068824;22;45232;-94
2022/01/19 05:45:07;;;;;;;;;33.25;28.25;;;;;;;;5019812;28;45335;-94
2022/01/19 05:47:32;;;;;;;;;22.75;18.50;;;;;;;;5021152;28;45538;-94
2022/01/19 05:49:57;;;;;;;;;29.50;27.00;;;;;;;;5028204;28;47162;-94
2022/01/19 05:52:23;;;;;;;;;35.25;27.75;;;;;;;;5028700;28;45439;-94
2022/01/19 05:54:48;;;;;;;;;27.75;25.75;;;;;;;;5025773;28;45464;-94
2022/01/19 05:57:13;;;;;;;;;31.50;28.50;;;;;;;;5025580;28;45373;-94
2022/01/19 06:02:13;;;;;;;;;35.50;33.00;;;;;;;;5083084;22;45309;-94
2022/01/19 06:04:39;;;;;;;;;32.50;29.25;;;;;;;;5010490;28;45467;-94
2022/01/19 06:07:04;;;;;;;;;35.00;32.00;;;;;;;;5008954;28;45374;-94
2022/01/19 06:12:08;;;;;;;;;37.50;33.75;;;;;;;;5018439;28;45283;-95
2022/01/19 06:14:34;;;;;;;;;38.75;34.25;;;;;;;;5032655;28;45647;-94
2022/01/19 06:17:00;;;;;;;;;37.25;32.75;;;;;;;;5058066;28;45249;-95
2022/01/19 06:19:25;;;;;;;;;45.75;34.00;;;;;;;;5027659;28;47361;-95
2022/01/19 06:21:51;;;;;;;;;37.00;33.00;;;;;;;;5027080;28;45633;-95
2022/01/19 06:24:16;;;;;;;;;37.50;33.50;;;;;;;;5003509;28;45697;-94
2022/01/19 06:26:42;;;;;;;;;37.00;29.75;;;;;;;;5000079;28;45615;-94
2022/01/19 06:29:07;;;;;;;;;33.00;27.00;;;;;;;;5018732;28;48295;-96
2022/01/19 06:31:32;;;;;;;;;30.75;25.25;;;;;;;;5019499;28;45250;-95
2022/01/19 06:33:58;;;;;;;;;30.50;26.75;;;;;;;;5018953;28;45661;-94
2022/01/19 06:36:23;;;;;;;;;33.25;30.25;;;;;;;;5019573;28;45592;-95
2022/01/19 06:38:48;;;;;;;;;39.75;33.75;;;;;;;;5022026;28;47145;-94
2022/01/19 06:41:13;;;;;;;;;34.50;30.75;;;;;;;;5027126;28;45435;-94
2022/01/19 06:43:39;;;;;;;;;31.00;28.50;;;;;;;;5031248;28;45237;-94
2022/01/19 06:46:04;;;;;;;;;37.00;33.00;;;;;;;;5026370;28;45336;-94
2022/01/19 06:48:30;;;;;;;;;39.50;33.00;;;;;;;;5025707;28;47557;-94
2022/01/19 06:50:55;;;;;;;;;39.00;32.75;;;;;;;;5016675;28;45429;-95
2022/01/19 06:53:21;;;;;;;;;37.75;32.75;;;;;;;;5026945;28;45701;-95
2022/01/19 06:55:46;;;;;;;;;40.50;35.25;;;;;;;;5016860;28;45486;-95
2022/01/19 06:58:12;;;;;;;;;36.25;31.00;;;;;;;;5011537;28;47037;-94
2022/01/19 07:00:37;;;;;;;;;41.25;35.00;;;;;;;;5018148;28;45554;-94
2022/01/19 07:03:02;;;;;;;;;42.00;35.75;;;;;;;;5018915;28;45455;-95
2022/01/19 07:05:27;;;;;;;;;42.25;34.00;;;;;;;;5033476;28;45516;-95
2022/01/19 07:07:56;;;;;;;;;32.75;29.50;;;;;;;;5038108;28;47944;-95
2022/01/19 07:10:22;;;;;;;;;42.00;35.25;;;;;;;;5029221;28;45493;-94
2022/01/19 07:12:47;;;;;;;;;39.50;34.50;;;;;;;;5024200;28;45313;-95
2022/01/19 07:15:12;;;;;;;;;45.00;35.50;;;;;;;;5032719;28;45355;-95
2022/01/19 07:17:38;;;;;;;;;34.00;32.50;;;;;;;;5037795;28;47356;-94
2022/01/19 07:20:03;;;;;;;;;36.75;33.25;;;;;;;;5017882;28;45713;-95
2022/01/19 07:22:28;;;;;;;;;28.75;24.50;;;;;;;;5033266;28;45413;-94
2022/01/19 07:27:21;;;;;;;;;39.00;33.50;;;;;;;;5002887;28;45239;-95
2022/01/19 07:29:46;;;;;;;;;41.75;34.75;;;;;;;;4983210;28;44959;-91
2022/01/19 07:32:12;;;;;;;;;40.00;33.50;;;;;;;;5001102;28;45386;-95
2022/01/19 07:34:37;;;;;;;;;39.00;36.25;;;;;;;;4979921;28;45508;-91
2022/01/19 07:37:03;;;;;;;;;33.25;31.00;;;;;;;;4992886;28;45612;-93
2022/01/19 07:39:28;;;;;;;;;39.00;34.75;;;;;;;;4974415;28;45684;-95
2022/01/19 07:41:55;;;;;;;;;38.50;34.50;;;;;;;;4972294;28;45563;-95
2022/01/19 07:44:20;;;;;;;;;34.50;31.00;;;;;;;;4974973;28;45651;-95
2022/01/19 07:46:46;;;;;;;;;40.50;32.50;;;;;;;;4973925;28;47304;-95
2022/01/19 07:49:11;;;;;;;;;31.00;29.50;;;;;;;;5004112;28;45379;-95
2022/01/19 07:51:36;;;;;;;;;36.75;29.50;;;;;;;;4973434;28;45297;-92
2022/01/19 07:54:01;;;;;;;;;32.25;30.25;;;;;;;;4993422;28;45527;-95
2022/01/19 07:56:26;;;;;;;;;39.00;33.75;;;;;;;;4978570;28;47255;-95
2022/01/19 07:58:52;;;;;;;;;41.00;36.25;;;;;;;;4974916;28;45298;-95
2022/01/19 08:01:19;;;;;;;;;31.50;27.00;;;;;;;;4977536;28;45274;-96
2022/01/19 08:03:44;;;;;;;;;38.25;32.25;;;;;;;;4974873;28;45589;-96
2022/01/19 08:06:09;;;;;;;;;34.50;33.50;;;;;;;;4977074;28;47596;-96
2022/01/19 08:08:35;;;;;;;;;38.00;31.75;;;;;;;;4975044;28;45387;-96
2022/01/19 08:11:01;;;;;;;;;35.00;32.00;;;;;;;;4975951;28;45462;-96
2022/01/19 08:13:26;;;;;;;;;39.75;37.25;;;;;;;;4977438;28;45299;-95
2022/01/19 08:15:51;;;;;;;;;42.25;32.75;;;;;;;;4978236;28;47448;-96
2022/01/19 08:18:16;;;;;;;;;32.50;29.00;;;;;;;;4983176;28;45381;-96
2022/01/19 08:20:43;;;;;;;;;28.75;27.00;;;;;;;;4997309;28;45416;-96
2022/01/19 08:23:08;;;;;;;;;32.75;27.75;;;;;;;;4992084;28;45470;-95
2022/01/19 08:25:34;;;;;;;;;37.50;32.75;;;;;;;;5000956;28;47085;-96
2022/01/19 08:27:59;;;;;;;;;32.50;27.25;;;;;;;;5017739;28;44859;-96
2022/01/19 08:30:24;;;;;;;;;31.75;26.50;;;;;;;;4995468;28;45469;-95
2022/01/19 08:32:50;;;;;;;;;37.00;29.50;;;;;;;;4992922;28;45513;-96
2022/01/19 08:35:15;;;;;;;;;35.75;29.75;;;;;;;;4994801;28;48455;-95
2022/01/19 08:37:40;;;;;;;;;37.00;31.25;;;;;;;;4996061;28;45579;-96
2022/01/19 08:40:06;;;;;;;;;41.25;34.75;;;;;;;;4995117;28;45337;-96
2022/01/19 08:42:33;;;;;;;;;28.75;28.75;;;;;;;;4994833;28;45342;-96
2022/01/19 08:45:04;;;;;;;;;35.00;29.50;;;;;;;;4995149;28;47221;-96
2022/01/19 08:47:30;;;;;;;;;30.00;26.25;;;;;;;;4990714;28;45361;-96
2022/01/19 08:49:55;;;;;;;;;37.50;29.75;;;;;;;;4995000;28;45796;-96
2022/01/19 08:52:20;;;;;;;;;38.75;29.00;;;;;;;;4994519;28;45460;-96
2022/01/19 08:54:47;;;;;;;;;31.25;23.25;;;;;;;;5007864;28;48282;-96
2022/01/19 08:57:14;;;;;;;;;37.50;32.75;;;;;;;;5007666;28;45967;-96
2022/01/19 08:59:41;;;;;;;;;40.75;31.50;;;;;;;;4989722;28;45431;-96
2022/01/19 09:02:06;;;;;;;;;46.00;34.75;;;;;;;;5013379;28;45376;-96
2022/01/19 09:04:31;;;;;;;;;34.25;28.00;;;;;;;;4988426;28;47950;-96
2022/01/19 09:06:58;;;;;;;;;43.25;35.25;;;;;;;;5006036;28;44983;-96
2022/01/19 09:09:24;;;;;;;;;34.00;32.75;;;;;;;;5000736;28;44806;-96
2022/01/19 09:11:52;;;;;;;;;45.50;34.75;;;;;;;;5008249;28;45250;-96
2022/01/19 09:14:17;;;;;;;;;37.50;32.50;;;;;;;;4982366;28;47174;-96
2022/01/19 09:16:44;;;;;;;;;39.50;31.00;;;;;;;;4995018;28;45471;-96
2022/01/19 09:19:10;;;;;;;;;42.00;32.75;;;;;;;;4995826;28;45327;-96
2022/01/19 09:21:36;;;;;;;;;41.50;32.75;;;;;;;;4992865;28;45330;-96
2022/01/19 09:24:01;;;;;;;;;36.25;32.00;;;;;;;;5002610;28;48133;-96
2022/01/19 09:26:28;;;;;;;;;40.00;31.00;;;;;;;;4999303;28;46389;-96
2022/01/19 09:28:53;;;;;;;;;32.75;32.75;;;;;;;;5007235;28;45332;-96
2022/01/19 09:31:19;;;;;;;;;38.25;32.25;;;;;;;;5005837;28;45388;-96
2022/01/19 09:33:52;;;;;;;;;33.50;28.00;;;;;;;;4995670;28;47939;-96
2022/01/19 09:36:30;;;;;;;;;31.75;23.25;;;;;;;;4994363;28;45752;-95
2022/01/19 09:38:55;;;;;;;;;41.50;33.25;;;;;;;;4993063;28;45393;-95
2022/01/19 09:41:21;;;;;;;;;36.25;30.75;;;;;;;;4992197;28;45442;-95
2022/01/19 09:43:47;;;;;;;;;33.50;31.75;;;;;;;;4993170;28;46411;-95
2022/01/19 09:46:12;;;;;;;;;38.00;33.00;;;;;;;;5004184;28;45418;-96
2022/01/19 09:48:37;;;;;;;;;44.00;36.25;;;;;;;;4993491;28;45471;-95
2022/01/19 09:51:03;;;;;;;;;47.75;37.50;;;;;;;;5000244;28;45492;-95
2022/01/19 09:53:28;;;;;;;;;43.00;34.50;;;;;;;;4974712;28;47266;-96
2022/01/19 09:55:53;;;;;;;;;39.50;34.75;;;;;;;;5007784;28;45338;-95
2022/01/19 09:58:21;;;;;;;;;34.25;31.00;;;;;;;;5004242;28;45379;-95
2022/01/19 10:00:46;;;;;;;;;32.75;29.75;;;;;;;;5004616;28;45397;-95
2022/01/19 10:03:18;;;;;;;;;41.50;32.25;;;;;;;;5002972;28;47221;-95
2022/01/19 10:05:52;;;;;;;;;48.25;32.00;;;;;;;;5002121;28;45504;-96
2022/01/19 10:08:24;;;;;;;;;43.50;39.25;;;;;;;;5015746;28;45778;-95
2022/01/19 10:11:03;;;;;;;;;41.50;35.25;;;;;;;;4991047;28;45358;-95
2022/01/19 10:19:15;;;;;;;;;40.00;30.50;;;;;;;;5000235;28;45282;-95
2022/01/19 10:21:59;;;;;;;;;41.25;37.00;;;;;;;;4995144;28;44944;-95
2022/01/19 10:24:46;;;;;;;;;37.75;32.00;;;;;;;;4998090;28;47615;-96
2022/01/19 10:27:32;;;;;;;;;51.00;37.25;;;;;;;;5014535;28;48215;-96
2022/01/19 10:30:03;;;;;;;;;45.75;38.25;;;;;;;;4997345;28;45538;-94
2022/01/19 10:32:33;;;;;;;;;43.50;37.50;;;;;;;;4992850;28;45575;-95
2022/01/19 10:35:12;;;;;;;;;44.75;35.75;;;;;;;;4994889;28;47188;-96
2022/01/19 10:37:37;;;;;;;;;47.25;36.00;;;;;;;;4995310;28;45382;-96
2022/01/19 10:40:02;;;;;;;;;43.25;35.25;;;;;;;;5000003;28;45661;-96
2022/01/19 10:42:31;;;;;;;;;51.25;36.00;;;;;;;;4990972;28;45478;-96
2022/01/19 10:45:00;;;;;;;;;34.00;32.00;;;;;;;;4995677;28;47147;-96
2022/01/19 10:47:38;;;;;;;;;42.50;34.25;;;;;;;;4996800;28;45294;-96
2022/01/19 10:50:03;;;;;;;;;50.50;38.75;;;;;;;;5012013;28;46066;-95
2022/01/19 10:52:28;;;;;;;;;18.50;12.00;;;;;;;;5004745;28;45417;-96
2022/01/19 10:54:54;;;;;;;;;38.00;35.00;;;;;;;;5011476;28;47478;-96
2022/01/19 10:57:19;;;;;;;;;45.50;39.50;;;;;;;;4999560;28;45440;-96
2022/01/19 10:59:45;;;;;;;;;56.50;41.50;;;;;;;;4996204;28;45464;-96
2022/01/19 11:02:12;;;;;;;;;52.25;39.50;;;;;;;;5000311;28;45557;-95
2022/01/19 11:04:38;;;;;;;;;53.25;40.25;;;;;;;;5001249;28;46502;-95
2022/01/19 11:07:08;;;;;;;;;55.25;41.75;;;;;;;;5013803;28;45227;-91
2022/01/19 11:09:35;;;;;;;;;46.50;38.25;;;;;;;;4997111;28;45604;-92
2022/01/19 11:12:07;;;;;;;;;55.00;43.00;;;;;;;;4995765;28;45370;-94
2022/01/19 11:14:37;;;;;;;;;54.50;44.00;;;;;;;;5008763;28;46343;-93
2022/01/19 11:17:03;;;;;;;;;44.50;37.25;;;;;;;;5011359;28;45247;-91
2022/01/19 11:19:29;;;;;;;;;51.50;36.25;;;;;;;;4995645;28;45310;-93
2022/01/19 11:22:09;;;;;;;;;58.25;45.50;;;;;;;;5011747;28;45316;-91
2022/01/19 11:24:44;;;;;;;;;59.00;45.00;;;;;;;;4997532;28;48006;-91
2022/01/19 11:27:10;;;;;;;;;57.75;45.75;;;;;;;;5007859;28;45454;-96
2022/01/19 11:29:38;;;;;;;;;56.50;44.00;;;;;;;;5001752;28;45304;-96
2022/01/19 11:32:16;;;;;;;;;58.00;45.25;;;;;;;;4963270;28;45187;-96
2022/01/19 11:34:46;;;;;;;;;55.50;41.25;;;;;;;;4983909;28;47523;-96
2022/01/19 11:37:11;;;;;;;;;52.50;42.50;;;;;;;;4982736;28;45263;-94
2022/01/19 11:39:37;;;;;;;;;52.00;42.25;;;;;;;;4990700;28;45828;-95
2022/01/19 11:42:05;;;;;;;;;55.50;42.00;;;;;;;;4996886;28;45269;-93
2022/01/19 11:44:31;;;;;;;;;55.00;45.00;;;;;;;;4996761;28;47279;-94
2022/01/19 11:46:57;;;;;;;;;42.50;38.00;;;;;;;;4994403;28;45415;-94
2022/01/19 11:49:41;;;;;;;;;52.75;40.75;;;;;;;;4989970;28;45679;-95
2022/01/19 11:52:07;;;;;;;;;45.75;38.00;;;;;;;;4978867;28;45465;-92
2022/01/19 11:54:35;;;;;;;;;51.00;41.75;;;;;;;;5002852;28;47498;-90
2022/01/19 11:57:04;;;;;;;;;52.50;39.50;;;;;;;;4991721;28;45865;-91
2022/01/19 11:59:30;;;;;;;;;49.50;41.75;;;;;;;;4971949;28;45351;-92
2022/01/19 12:02:14;;;;;;;;;43.75;37.25;;;;;;;;4990537;28;45785;-92
2022/01/19 12:04:39;;;;;;;;;40.25;36.00;;;;;;;;4986010;28;48843;-91
2022/01/19 12:07:24;;;;;;;;;46.25;38.75;;;;;;;;4972604;28;45378;-91
2022/01/19 12:09:56;;;;;;;;;53.50;38.75;;;;;;;;4964000;28;45513;-93
2022/01/19 12:12:24;;;;;;;;;53.50;40.75;;;;;;;;4983684;28;45459;-92
2022/01/19 12:14:51;;;;;;;;;41.50;34.50;;;;;;;;4991992;28;45716;-92
2022/01/19 12:17:26;;;;;;;;;41.00;35.25;;;;;;;;4979787;28;45537;-93
2022/01/19 12:19:52;;;;;;;;;44.75;39.25;;;;;;;;4975746;28;45852;-93
2022/01/19 12:22:17;;;;;;;;;49.25;38.50;;;;;;;;4993153;28;53804;-93
2022/01/19 12:24:54;;;;;;;;;34.75;30.00;;;;;;;;4967254;28;46311;-93
2022/01/19 12:27:19;;;;;;;;;43.25;34.75;;;;;;;;4978553;28;45639;-92
2022/01/19 12:29:46;;;;;;;;;46.50;34.25;;;;;;;;5014632;28;45364;-93
2022/01/19 12:32:17;;;;;;;;;46.50;34.50;;;;;;;;5002099;28;45317;-90
2022/01/19 12:34:44;;;;;;;;;37.00;33.25;;;;;;;;4992746;28;47182;-91
2022/01/19 12:37:10;;;;;;;;;41.00;31.75;;;;;;;;4996592;28;45402;-92
2022/01/19 12:39:36;;;;;;;;;41.00;33.25;;;;;;;;4994047;28;45549;-92
2022/01/19 12:42:16;;;;;;;;;39.25;35.00;;;;;;;;4988569;28;45393;-92
2022/01/19 12:44:43;;;;;;;;;39.25;35.25;;;;;;;;4982254;28;47636;-92
2022/01/19 12:47:24;;;;;;;;;37.50;33.00;;;;;;;;4992350;28;45717;-91
2022/01/19 12:49:50;;;;;;;;;34.25;32.25;;;;;;;;4990637;28;45566;-91
2022/01/19 12:52:15;;;;;;;;;33.25;30.50;;;;;;;;4995071;28;45626;-91
2022/01/19 12:54:41;;;;;;;;;35.25;29.25;;;;;;;;4988113;28;46837;-91
2022/01/19 12:57:06;;;;;;;;;34.75;24.25;;;;;;;;4988993;28;45699;-91
2022/01/19 12:59:32;;;;;;;;;32.25;30.75;;;;;;;;4992210;28;45410;-92
2022/01/19 13:01:57;;;;;;;;;34.25;30.75;;;;;;;;4988728;28;45667;-92
2022/01/19 13:04:33;;;;;;;;;23.50;21.50;;;;;;;;4993290;28;45330;-93
2022/01/19 13:07:13;;;;;;;;;34.67;25.00;;;;;;;;4982096;28;45996;-93
2022/01/19 13:09:58;;;;;;;;;30.00;25.67;;;;;;;;4985741;28;45472;-93
2022/01/19 13:12:31;;;;;;;;;37.00;29.67;;;;;;;;4990558;28;45549;-93
2022/01/19 13:14:56;;;;;;;;;28.67;25.67;;;;;;;;5006265;28;47064;-93
2022/01/19 13:17:21;;;;;;;;;32.33;25.00;;;;;;;;5000807;28;45068;-93
2022/01/19 13:19:46;;;;;;;;;26.33;19.67;;;;;;;;4999337;28;45240;-93
2022/01/19 13:22:12;;;;;;;;;29.67;24.33;;;;;;;;5001981;28;45418;-92
2022/01/19 13:24:37;;;;;;;;;30.67;26.67;;;;;;;;4995729;28;47108;-93
2022/01/19 13:27:04;;;;;;;;;33.67;24.67;;;;;;;;5017535;28;45380;-93
2022/01/19 13:29:42;;;;;;;;;35.33;26.33;;;;;;;;5019589;28;45412;-94
2022/01/19 13:32:11;;;;;;;;;29.00;26.33;;;;;;;;5015038;28;45386;-93
2022/01/19 13:35:15;;;;;;;;;28.33;24.00;;;;;;;;4999480;28;48660;-93
2022/01/19 13:37:45;;;;;;;;;34.75;25.25;;;;;;;;4953970;28;46203;-94
2022/01/19 13:40:16;;;;;;;;;26.25;25.25;;;;;;;;4957698;28;45483;-93
2022/01/19 13:42:43;;;;;;;;;33.25;26.00;;;;;;;;4960799;28;45402;-92
2022/01/19 13:45:13;;;;;;;;;29.00;25.50;;;;;;;;4954743;28;47157;-93
2022/01/19 13:48:21;;;;;;;;;32.75;26.25;;;;;;;;4972813;28;45606;-93
2022/01/19 13:50:44;;;;;;;;;34.75;29.50;;;;;;;;4972955;28;45509;-92
2022/01/19 13:53:11;;;;;;;;;29.33;27.00;;;;;;;;4959483;28;45445;-93
2022/01/19 13:55:37;;;;;;;;;26.33;23.67;;;;;;;;4957209;28;48320;-94
2022/01/19 13:58:06;;;;;;;;;34.33;27.00;;;;;;;;4958456;28;45590;-93
2022/01/19 14:00:31;;;;;;;;;32.00;25.75;;;;;;;;4970695;28;45505;-94
2022/01/19 14:03:01;;;;;;;;;26.25;24.25;;;;;;;;4956200;28;45537;-93
2022/01/19 14:05:36;;;;;;;;;32.33;23.67;;;;;;;;4958609;28;47661;-93
2022/01/19 14:08:02;;;;;;;;;29.00;20.25;;;;;;;;4968342;28;45513;-93
2022/01/19 14:10:37;;;;;;;;;32.00;30.00;;;;;;;;5005281;28;45298;-93
2022/01/19 14:13:19;;;;;;;;;33.33;22.67;;;;;;;;4999789;28;45703;-93
2022/01/19 14:15:44;;;;;;;;;29.25;26.25;;;;;;;;5004988;28;47372;-93
2022/01/19 14:18:10;;;;;;;;;33.00;24.75;;;;;;;;5019333;28;45415;-92
2022/01/19 14:20:36;;;;;;;;;32.25;25.75;;;;;;;;5016870;28;45321;-94
2022/01/19 14:23:12;;;;;;;;;36.50;31.75;;;;;;;;5006219;28;47398;-93
2022/01/19 14:25:38;;;;;;;;;30.00;25.50;;;;;;;;4996388;28;47239;-93
2022/01/19 14:28:11;;;;;;;;;34.25;30.75;;;;;;;;4998743;28;45634;-94
2022/01/19 14:30:37;;;;;;;;;29.50;28.50;;;;;;;;5014176;28;45534;-94
2022/01/19 14:33:09;;;;;;;;;31.67;24.33;;;;;;;;5013155;28;45359;-93
2022/01/19 14:35:35;;;;;;;;;31.00;24.33;;;;;;;;5014988;28;45504;-93
2022/01/19 14:38:13;;;;;;;;;32.25;30.00;;;;;;;;4993941;28;46334;-93
2022/01/19 14:40:48;;;;;;;;;28.75;21.75;;;;;;;;4995095;28;45359;-93
2022/01/19 14:43:15;;;;;;;;;32.00;26.50;;;;;;;;4999240;28;45414;-91
2022/01/19 14:46:11;;;;;;;;;26.33;24.00;;;;;;;;5013542;28;46242;-94
2022/01/19 14:48:38;;;;;;;;;34.00;29.33;;;;;;;;4998461;28;45645;-94
2022/01/19 14:51:39;;;;;;;;;30.00;26.00;;;;;;;;4998114;28;45558;-93
2022/01/19 14:54:08;;;;;;;;;31.00;26.75;;;;;;;;4952867;28;45612;-93
2022/01/19 14:56:35;;;;;;;;;38.67;26.00;;;;;;;;4957853;28;46391;-93
2022/01/19 14:59:10;;;;;;;;;36.00;28.00;;;;;;;;4984986;28;45500;-94
2022/01/19 15:01:38;;;;;;;;;25.67;21.67;;;;;;;;4962072;28;45305;-93
2022/01/19 15:04:04;;;;;;;;;31.67;28.00;;;;;;;;4955554;28;45406;-93
2022/01/19 15:06:29;;;;;;;;;31.33;25.33;;;;;;;;4978586;28;46469;-93
2022/01/19 15:08:54;;;;;;;;;32.00;28.67;;;;;;;;4974987;28;45966;-93
2022/01/19 15:11:20;;;;;;;;;29.00;27.50;;;;;;;;4978419;28;45346;-92
2022/01/19 15:13:46;;;;;;;;;32.25;26.25;;;;;;;;4957857;28;45415;-93
2022/01/19 15:16:11;;;;;;;;;38.00;26.25;;;;;;;;4974296;28;45394;-93
2022/01/19 15:18:36;;;;;;;;;27.33;22.00;;;;;;;;4952721;28;45404;-93
2022/01/19 15:21:01;;;;;;;;;26.67;20.67;;;;;;;;4940204;28;45439;-93
2022/01/19 15:23:27;;;;;;;;;28.67;20.33;;;;;;;;4960048;28;45409;-91
2022/01/19 15:25:52;;;;;;;;;24.67;24.33;;;;;;;;4961998;28;45635;-93
2022/01/19 15:28:17;;;;;;;;;30.00;28.00;;;;;;;;4964018;28;45951;-93
2022/01/19 15:30:43;;;;;;;;;29.00;25.67;;;;;;;;4978427;28;46643;-94
2022/01/19 15:33:08;;;;;;;;;27.67;24.00;;;;;;;;4974030;28;45415;-93
2022/01/19 15:35:36;;;;;;;;;25.67;23.33;;;;;;;;4989497;28;47221;-93
2022/01/19 15:38:01;;;;;;;;;26.67;22.33;;;;;;;;4989696;28;45634;-93
2022/01/19 15:40:28;;;;;;;;;30.00;25.00;;;;;;;;4971636;28;45427;-93
2022/01/19 15:42:53;;;;;;;;;26.33;24.00;;;;;;;;4968265;28;45652;-93
2022/01/19 15:45:19;;;;;;;;;30.00;23.67;;;;;;;;4993278;28;45512;-94
2022/01/19 15:47:44;;;;;;;;;28.67;25.67;;;;;;;;4984186;28;45616;-93
2022/01/19 15:50:10;;;;;;;;;30.33;24.00;;;;;;;;4971780;28;45512;-92
2022/01/19 15:52:36;;;;;;;;;27.67;19.67;;;;;;;;4968425;28;45444;-93
2022/01/19 15:55:02;;;;;;;;;27.67;24.67;;;;;;;;4992223;28;45606;-94